Time;durP1;ratioP1;P1;durP2;ratioP2;P2;SDS_P1;SDS_P2;PMS_P1;PMS_P2;Temp;Humidity;BMP_temperature;BMP_pressure;BME280_temperature;BME280_humidity;BME280_pressure;Samples;Min_cycle;Max_cycle;Signal;HPM_P1;HPM_P2
2021/09/15 00:01:05;;;;;;;;;;;;;;;21.92;93.62;100996.19;7284404;19;152670;-51
2021/09/15 00:03:35;;;;;;;;;;;;;;;21.93;93.73;100994.25;7282347;19;153865;-52
2021/09/15 00:06:02;;;;;;;;;;;;;;;21.92;93.46;100984.94;7285870;19;152173;-52
2021/09/15 00:08:28;;;;;;;;;;;;;;;21.92;93.69;100989.75;7281528;19;152178;-52
2021/09/15 00:10:55;;;;;;;;;;;;;;;21.95;93.33;100983.50;7281637;19;154011;-52
2021/09/15 00:13:22;;;;;;;;;;;;;;;21.94;93.22;100982.66;7288939;19;153105;-52
2021/09/15 00:15:49;;;;;;;;;;;;;;;21.95;93.28;100981.53;7280472;19;153984;-51
2021/09/15 00:18:16;;;;;;;;;;;;;;;21.94;93.42;100979.84;7284428;19;151907;-52
2021/09/15 00:20:42;;;;;;;;;;;;;;;21.96;93.39;100991.63;7283056;19;153049;-51
2021/09/15 00:23:09;;;;;;;;;;;;;;;21.95;93.45;100991.94;7281960;19;153405;-51
2021/09/15 00:25:36;;;;;;;;;;;;;;;21.97;93.29;100978.41;7280780;19;151736;-52
2021/09/15 00:28:03;;;;;;;;;;;;;;;21.98;93.38;100983.72;7285199;19;153144;-52
2021/09/15 00:30:29;;;;;;;;;;;;;;;21.99;93.15;100973.28;7283908;19;153384;-52
2021/09/15 00:32:56;;;;;;;;;;;;;;;22.00;93.60;100989.00;7282193;19;151908;-51
2021/09/15 00:35:23;;;;;;;;;;;;;;;21.99;93.48;100982.56;7290862;19;152699;-52
2021/09/15 00:37:50;;;;;;;;;;;;;;;22.01;92.93;100977.44;7281942;19;152442;-54
2021/09/15 00:40:18;;;;;;;;;;;;;;;22.00;93.16;100978.59;7284390;19;151844;-54
2021/09/15 00:42:45;;;;;;;;;;;;;;;22.01;93.16;100982.25;7279896;19;154626;-52
2021/09/15 00:45:12;;;;;;;;;;;;;;;22.04;93.11;100975.97;7284982;19;151879;-53
2021/09/15 00:47:39;;;;;;;;;;;;;;;22.03;92.90;100977.16;7283759;19;152706;-52
2021/09/15 00:50:06;;;;;;;;;;;;;;;22.02;93.15;100970.69;7281880;19;153479;-53
2021/09/15 00:52:33;;;;;;;;;;;;;;;22.00;93.38;100964.53;7283830;19;151760;-52
2021/09/15 00:55:02;;;;;;;;;;;;;;;22.01;93.25;100962.56;7278320;19;153300;-52
2021/09/15 00:57:29;;;;;;;;;;;;;;;22.00;93.01;100953.28;7290586;19;153965;-53
2021/09/15 00:59:56;;;;;;;;;;;;;;;21.99;93.25;100957.22;7287135;19;152393;-53
2021/09/15 01:02:26;;;;;;;;;;;;;;;21.99;93.29;100965.66;7288362;19;156167;-53
2021/09/15 01:04:53;;;;;;;;;;;;;;;22.03;93.83;100957.44;7290086;19;152985;-52
2021/09/15 01:07:20;;;;;;;;;;;;;;;22.00;93.10;100955.25;7286069;19;153205;-53
2021/09/15 01:09:48;;;;;;;;;;;;;;;22.00;93.18;100956.09;7288528;19;153837;-52
2021/09/15 01:12:15;;;;;;;;;;;;;;;22.01;93.33;100963.38;7286817;19;151919;-52
2021/09/15 01:14:41;;;;;;;;;;;;;;;22.01;93.13;100954.94;7290922;19;152670;-52
2021/09/15 01:17:09;;;;;;;;;;;;;;;22.00;93.70;100961.72;7288632;19;153858;-53
2021/09/15 01:19:36;;;;;;;;;;;;;;;22.00;93.28;100949.63;7296101;19;152041;-53
2021/09/15 01:22:03;;;;;;;;;;;;;;;22.00;93.32;100958.06;7286577;19;153393;-52
2021/09/15 01:24:30;;;;;;;;;;;;;;;21.99;93.40;100962.84;7287735;19;151996;-53
2021/09/15 01:27:00;;;;;;;;;;;;;;;22.00;93.65;100956.09;7287044;19;153547;-52
2021/09/15 01:29:28;;;;;;;;;;;;;;;22.00;93.68;100946.81;7286582;19;153928;-51
2021/09/15 01:31:57;;;;;;;;;;;;;;;21.99;93.27;100945.97;7289253;19;152518;-52
2021/09/15 01:34:25;;;;;;;;;;;;;;;22.02;93.33;100938.91;7284421;19;152819;-51
2021/09/15 01:36:51;;;;;;;;;;;;;;;22.02;93.09;100944.53;7287256;19;153763;-52
2021/09/15 01:39:18;;;;;;;;;;;;;;;22.01;92.85;100946.50;7285616;19;151672;-51
2021/09/15 01:41:45;;;;;;;;;;;;;;;22.01;93.04;100948.47;7294144;19;152613;-52
2021/09/15 01:44:12;;;;;;;;;;;;;;;22.02;93.24;100952.97;7286641;19;152014;-51
2021/09/15 01:46:39;;;;;;;;;;;;;;;22.02;93.00;100955.78;7289822;19;153116;-52
2021/09/15 01:49:05;;;;;;;;;;;;;;;21.99;92.98;100950.78;7283999;19;153015;-52
2021/09/15 01:51:32;;;;;;;;;;;;;;;21.99;93.26;100943.16;7289091;19;152421;-51
2021/09/15 01:53:59;;;;;;;;;;;;;;;22.01;93.29;100943.69;7287440;19;152069;-51
2021/09/15 01:56:26;;;;;;;;;;;;;;;22.00;92.98;100942.03;7283908;19;152198;-52
2021/09/15 01:58:53;;;;;;;;;;;;;;;22.01;93.42;100940.88;7285193;19;152138;-52
2021/09/15 02:01:19;;;;;;;;;;;;;;;22.02;92.93;100945.34;7289202;19;152828;-51
2021/09/15 02:03:46;;;;;;;;;;;;;;;22.00;92.49;100952.44;7292339;19;152555;-51
2021/09/15 02:06:13;;;;;;;;;;;;;;;22.01;92.70;100954.09;7289283;19;152894;-52
2021/09/15 02:08:40;;;;;;;;;;;;;;;22.01;93.08;100959.72;7285851;19;154346;-52
2021/09/15 02:11:10;;;;;;;;;;;;;;;22.01;92.59;100959.72;7286922;19;152340;-52
2021/09/15 02:13:37;;;;;;;;;;;;;;;22.01;92.91;100957.75;7284493;19;153376;-53
2021/09/15 02:16:04;;;;;;;;;;;;;;;22.03;92.76;100958.25;7284060;19;152850;-52
2021/09/15 02:18:30;;;;;;;;;;;;;;;22.01;93.05;100959.72;7285936;19;152541;-53
2021/09/15 02:20:57;;;;;;;;;;;;;;;22.01;92.76;100968.19;7286988;19;151820;-52
2021/09/15 02:23:24;;;;;;;;;;;;;;;22.04;93.45;100967.53;7290866;19;153390;-52
2021/09/15 02:25:51;;;;;;;;;;;;;;;22.04;92.82;100971.19;7285608;19;153859;-52
2021/09/15 02:28:17;;;;;;;;;;;;;;;22.03;93.17;100963.88;7286059;19;154293;-52
2021/09/15 02:30:44;;;;;;;;;;;;;;;22.01;93.11;100957.75;7284703;19;153129;-52
2021/09/15 02:33:11;;;;;;;;;;;;;;;22.01;93.04;100959.72;7284318;19;152011;-52
2021/09/15 02:35:38;;;;;;;;;;;;;;;22.01;93.20;100962.56;7285579;19;153263;-52
2021/09/15 02:38:04;;;;;;;;;;;;;;;21.99;92.74;100962.84;7286754;19;152090;-52
2021/09/15 02:40:31;;;;;;;;;;;;;;;21.98;93.01;100958.41;7285290;19;153038;-52
2021/09/15 02:42:58;;;;;;;;;;;;;;;22.00;93.39;100958.06;7283982;19;153633;-53
2021/09/15 02:45:25;;;;;;;;;;;;;;;22.02;93.18;100958.59;7293699;19;151782;-53
2021/09/15 02:47:52;;;;;;;;;;;;;;;21.99;92.96;100953.56;7285257;19;153518;-53
2021/09/15 02:50:18;;;;;;;;;;;;;;;21.97;92.74;100958.72;7286995;19;151713;-53
2021/09/15 02:52:45;;;;;;;;;;;;;;;21.96;92.35;100954.22;7282790;19;151662;-52
2021/09/15 02:55:12;;;;;;;;;;;;;;;21.95;92.19;100967.47;7282614;19;154123;-53
2021/09/15 02:57:38;;;;;;;;;;;;;;;21.94;92.39;100971.41;7283400;19;153315;-52
2021/09/15 03:00:08;;;;;;;;;;;;;;;21.93;92.21;100966.97;7283940;19;153305;-52
2021/09/15 03:02:35;;;;;;;;;;;;;;;21.92;92.08;100979.31;7283708;19;153631;-53
2021/09/15 03:05:02;;;;;;;;;;;;;;;21.92;91.87;100972.88;7282077;19;152006;-53
2021/09/15 03:07:29;;;;;;;;;;;;;;;21.91;91.83;100969.22;7292394;19;153143;-53
2021/09/15 03:09:56;;;;;;;;;;;;;;;21.90;91.82;100975.16;7283037;19;151900;-52
2021/09/15 03:12:23;;;;;;;;;;;;;;;21.89;91.69;100967.88;7282164;19;152819;-53
2021/09/15 03:14:49;;;;;;;;;;;;;;;21.89;91.96;100963.09;7280458;19;153621;-53
2021/09/15 03:17:16;;;;;;;;;;;;;;;21.88;91.79;100960.59;7284633;19;152529;-52
2021/09/15 03:19:43;;;;;;;;;;;;;;;21.87;91.30;100962.56;7280776;19;152130;-53
2021/09/15 03:22:10;;;;;;;;;;;;;;;21.88;91.11;100974.66;7277987;19;153602;-53
2021/09/15 03:24:36;;;;;;;;;;;;;;;21.86;91.50;100965.69;7282996;19;152219;-52
2021/09/15 03:27:06;;;;;;;;;;;;;;;21.85;91.36;100970.47;7283299;19;153566;-53
2021/09/15 03:29:33;;;;;;;;;;;;;;;21.86;90.98;100974.13;7290143;19;153960;-53
2021/09/15 03:32:00;;;;;;;;;;;;;;;21.86;91.10;100976.94;7284121;19;153468;-52
2021/09/15 03:34:27;;;;;;;;;;;;;;;21.83;91.11;100986.84;7275050;19;153492;-53
2021/09/15 03:36:54;;;;;;;;;;;;;;;21.83;90.88;100986.00;7281236;19;151869;-53
2021/09/15 03:39:21;;;;;;;;;;;;;;;21.84;90.93;100987.69;7282358;19;152627;-52
2021/09/15 03:41:48;;;;;;;;;;;;;;;21.82;90.85;100989.97;7278672;19;153377;-52
2021/09/15 03:44:15;;;;;;;;;;;;;;;21.81;91.11;100989.13;7282261;19;152713;-53
2021/09/15 03:46:41;;;;;;;;;;;;;;;21.80;90.72;100993.13;7282911;19;152685;-53
2021/09/15 03:49:08;;;;;;;;;;;;;;;21.80;90.80;100995.94;7280671;19;153437;-52
2021/09/15 03:51:35;;;;;;;;;;;;;;;21.80;90.62;100990.31;7290737;19;152376;-53
2021/09/15 03:54:02;;;;;;;;;;;;;;;21.80;90.66;101001.56;7279961;19;154117;-53
2021/09/15 03:56:28;;;;;;;;;;;;;;;21.79;90.99;100999.88;7279827;19;151997;-53
2021/09/15 03:58:55;;;;;;;;;;;;;;;21.78;90.88;100989.78;7285835;19;155215;-53
2021/09/15 04:01:22;;;;;;;;;;;;;;;21.80;90.47;101001.56;7283617;19;153135;-52
2021/09/15 04:03:49;;;;;;;;;;;;;;;21.80;90.70;101000.72;7283390;19;152645;-52
2021/09/15 04:06:16;;;;;;;;;;;;;;;21.80;90.63;101001.56;7284718;19;153494;-53
2021/09/15 04:08:42;;;;;;;;;;;;;;;21.80;90.92;100998.75;7284428;19;153383;-53
2021/09/15 04:11:09;;;;;;;;;;;;;;;21.81;90.63;101003.19;7284657;19;152218;-52
2021/09/15 04:13:36;;;;;;;;;;;;;;;21.80;90.56;101004.38;7289619;19;153366;-52
2021/09/15 04:16:03;;;;;;;;;;;;;;;21.81;90.78;101008.81;7284907;19;154402;-53
2021/09/15 04:18:30;;;;;;;;;;;;;;;21.82;90.73;101006.84;7284171;19;153423;-52
2021/09/15 04:20:56;;;;;;;;;;;;;;;21.82;90.77;101013.31;7284857;19;153747;-53
2021/09/15 04:23:29;;;;;;;;;;;;;;;21.85;90.97;101021.09;7284926;19;151825;-53
2021/09/15 04:33:37;;;;;;;;;;;;;;;21.81;91.02;101017.25;7286654;19;153485;-52
2021/09/15 04:36:04;;;;;;;;;;;;;;;21.82;91.36;101024.56;7283867;19;151893;-53
2021/09/15 04:38:31;;;;;;;;;;;;;;;21.81;91.14;101022.06;7284660;19;152716;-52
2021/09/15 04:40:57;;;;;;;;;;;;;;;21.81;91.00;101030.50;7282263;19;154357;-52
2021/09/15 04:43:24;;;;;;;;;;;;;;;21.82;90.99;101027.38;7282916;19;152112;-53
2021/09/15 04:45:51;;;;;;;;;;;;;;;21.82;90.91;101030.19;7283545;19;151926;-52
2021/09/15 04:48:18;;;;;;;;;;;;;;;21.82;91.20;101038.63;7280197;19;153399;-53
2021/09/15 04:50:44;;;;;;;;;;;;;;;21.84;91.13;101039.16;7284735;19;151866;-53
2021/09/15 04:53:11;;;;;;;;;;;;;;;21.84;90.97;101049.56;7282424;19;153620;-52
2021/09/15 04:55:38;;;;;;;;;;;;;;;21.84;90.69;101049.56;7284553;19;153336;-53
2021/09/15 04:58:08;;;;;;;;;;;;;;;21.83;90.82;101057.16;7282763;19;151829;-52
2021/09/15 05:00:35;;;;;;;;;;;;;;;21.85;90.81;101056.88;7281633;19;152509;-52
2021/09/15 05:03:02;;;;;;;;;;;;;;;21.83;90.90;101062.78;7283507;19;151779;-52
2021/09/15 05:05:29;;;;;;;;;;;;;;;21.82;90.68;101063.94;7281899;19;152029;-52
2021/09/15 05:07:56;;;;;;;;;;;;;;;21.82;90.81;101063.94;7281238;19;153662;-52
2021/09/15 05:10:25;;;;;;;;;;;;;;;21.82;90.79;101075.19;7282428;19;154539;-53
2021/09/15 05:12:52;;;;;;;;;;;;;;;21.81;90.97;101075.50;7281724;19;151819;-53
2021/09/15 05:15:19;;;;;;;;;;;;;;;21.81;91.10;101065.06;7278051;19;152634;-53
2021/09/15 05:17:46;;;;;;;;;;;;;;;21.89;91.00;101083.22;7288787;19;151911;-52
2021/09/15 05:20:16;;;;;;;;;;;;;;;21.84;90.59;101066.44;7280764;19;153970;-52
2021/09/15 05:22:45;;;;;;;;;;;;;;;21.82;90.73;101074.34;7280942;19;152782;-53
2021/09/15 05:25:13;;;;;;;;;;;;;;;21.81;90.70;101081.13;7282454;19;153190;-53
2021/09/15 05:27:39;;;;;;;;;;;;;;;21.80;91.20;101088.75;7279323;19;153717;-52
2021/09/15 05:30:07;;;;;;;;;;;;;;;21.81;91.32;101089.56;7280322;19;152007;-52
2021/09/15 05:32:34;;;;;;;;;;;;;;;21.80;91.03;101094.38;7280772;19;153653;-53
2021/09/15 05:35:02;;;;;;;;;;;;;;;21.81;91.07;101112.06;7277489;19;153554;-52
2021/09/15 05:37:30;;;;;;;;;;;;;;;21.80;90.82;101107.59;7280451;19;151703;-52
2021/09/15 05:39:56;;;;;;;;;;;;;;;21.80;90.87;101110.41;7288748;19;153676;-57
2021/09/15 05:42:23;;;;;;;;;;;;;;;21.80;91.05;101118.84;7280945;19;151998;-52
2021/09/15 05:44:51;;;;;;;;;;;;;;;21.82;91.03;101122.16;7283434;19;152573;-55
2021/09/15 05:47:17;;;;;;;;;;;;;;;21.80;90.79;101132.91;7287436;19;156326;-52
2021/09/15 05:49:44;;;;;;;;;;;;;;;21.80;91.23;101130.09;7287366;19;151674;-52
2021/09/15 05:52:11;;;;;;;;;;;;;;;21.80;90.80;101130.94;7286803;19;153565;-54
2021/09/15 05:54:38;;;;;;;;;;;;;;;21.80;90.91;101136.56;7285478;19;153998;-53
2021/09/15 05:57:05;;;;;;;;;;;;;;;21.78;90.77;101133.22;7288129;19;152767;-52
2021/09/15 05:59:32;;;;;;;;;;;;;;;21.79;90.76;101134.06;7287046;19;152675;-53
2021/09/15 06:01:58;;;;;;;;;;;;;;;21.79;91.13;101139.69;7295438;19;153804;-53
2021/09/15 06:04:26;;;;;;;;;;;;;;;21.79;90.96;101132.09;7288408;19;153799;-53
2021/09/15 06:06:52;;;;;;;;;;;;;;;21.79;91.21;101134.91;7285314;19;152614;-52
2021/09/15 06:09:19;;;;;;;;;;;;;;;21.81;90.92;101134.56;7287598;19;151606;-52
2021/09/15 06:11:46;;;;;;;;;;;;;;;21.82;91.23;101139.06;7287550;19;153011;-53
2021/09/15 06:14:13;;;;;;;;;;;;;;;21.83;90.76;101137.91;7285505;19;153320;-52
2021/09/15 06:16:40;;;;;;;;;;;;;;;21.83;90.66;101137.91;7286962;19;151810;-53
2021/09/15 06:19:07;;;;;;;;;;;;;;;21.85;90.77;101141.25;7286462;19;152117;-52
2021/09/15 06:21:33;;;;;;;;;;;;;;;21.93;90.86;101143.38;7284551;19;153187;-52
2021/09/15 06:24:00;;;;;;;;;;;;;;;21.87;90.81;101131.34;7294043;19;152039;-52
2021/09/15 06:26:27;;;;;;;;;;;;;;;21.84;90.67;101145.22;7286210;19;153418;-53
2021/09/15 06:28:55;;;;;;;;;;;;;;;21.80;87.79;101149.78;7285821;19;151855;-52
2021/09/15 06:31:22;;;;;;;;;;;;;;;21.67;83.27;101146.66;7286905;19;152865;-52
2021/09/15 06:33:49;;;;;;;;;;;;;;;21.50;81.95;101149.22;7283641;19;153715;-52
2021/09/15 06:36:19;;;;;;;;;;;;;;;21.49;81.63;101153.19;7285188;19;152574;-52
2021/09/15 06:38:46;;;;;;;;;;;;;;;21.40;80.79;101163.47;7284077;19;153128;-51
2021/09/15 06:41:14;;;;;;;;;;;;;;;21.26;80.83;101154.16;7287714;19;153458;-52
2021/09/15 06:43:44;;;;;;;;;;;;;;;21.16;80.94;101157.19;7294244;19;152866;-52
2021/09/15 06:46:11;;;;;;;;;;;;;;;21.05;81.34;101153.69;7283507;19;152401;-52
2021/09/15 06:48:38;;;;;;;;;;;;;;;21.02;81.59;101157.09;7287302;19;151836;-52
2021/09/15 06:51:05;;;;;;;;;;;;;;;21.11;81.38;101154.44;7285689;19;153531;-52
2021/09/15 06:53:32;;;;;;;;;;;;;;;21.14;80.87;101160.28;7283066;19;153485;-52
2021/09/15 06:55:59;;;;;;;;;;;;;;;21.13;81.12;101166.22;7281358;19;151906;-52
2021/09/15 06:58:26;;;;;;;;;;;;;;;21.11;80.68;101160.88;7287135;19;153373;-52
2021/09/15 07:00:53;;;;;;;;;;;;;;;21.13;80.65;101155.81;7284829;19;152915;-54
2021/09/15 07:03:20;;;;;;;;;;;;;;;21.13;80.42;101157.78;7283782;19;152043;-52
2021/09/15 07:05:48;;;;;;;;;;;;;;;21.17;80.61;101156.03;7291536;19;152883;-52
2021/09/15 07:08:16;;;;;;;;;;;;;;;21.14;79.59;101151.03;7283245;19;152228;-52
2021/09/15 07:10:43;;;;;;;;;;;;;;;21.10;78.96;101152.75;7286435;19;153916;-52
2021/09/15 07:13:10;;;;;;;;;;;;;;;21.04;79.12;101156.78;7284587;19;152706;-51
2021/09/15 07:15:37;;;;;;;;;;;;;;;21.06;79.58;101151.69;7283825;19;151807;-52
2021/09/15 07:18:09;;;;;;;;;;;;;;;21.10;80.11;101158.38;7288107;19;153049;-52
2021/09/15 07:20:36;;;;;;;;;;;;;;;21.12;81.38;101158.91;7283196;19;153362;-52
2021/09/15 07:23:03;;;;;;;;;;;;;;;21.18;82.93;101160.50;7284087;19;151978;-51
2021/09/15 07:25:30;;;;;;;;;;;;;;;21.17;83.56;101165.28;7286162;19;153583;-52
2021/09/15 07:27:57;;;;;;;;;;;;;;;21.19;84.37;101165.81;7291590;19;153748;-52
2021/09/15 07:30:25;;;;;;;;;;;;;;;21.20;84.36;101164.69;7285482;19;154136;-52
2021/09/15 07:32:52;;;;;;;;;;;;;;;21.19;85.30;101165.81;7284392;19;153408;-51
2021/09/15 07:35:22;;;;;;;;;;;;;;;21.22;85.14;101162.38;7278789;19;152823;-51
2021/09/15 07:37:49;;;;;;;;;;;;;;;21.22;85.54;101159.59;7279208;19;152943;-52
2021/09/15 07:40:16;;;;;;;;;;;;;;;21.23;85.31;101164.06;7281252;19;153171;-51
2021/09/15 07:42:45;;;;;;;;;;;;;;;21.22;85.20;101159.59;7282935;19;152192;-52
2021/09/15 07:45:12;;;;;;;;;;;;;;;21.23;85.77;101154.81;7286389;19;153191;-52
2021/09/15 07:47:41;;;;;;;;;;;;;;;21.23;85.59;101163.22;7281786;19;152715;-52
2021/09/15 07:50:09;;;;;;;;;;;;;;;21.24;85.35;101176.97;7290037;19;151609;-52
2021/09/15 07:52:37;;;;;;;;;;;;;;;21.26;85.35;101183.13;7282491;19;153522;-51
2021/09/15 07:55:05;;;;;;;;;;;;;;;21.27;85.45;101175.53;7279620;19;151935;-49
2021/09/15 07:57:32;;;;;;;;;;;;;;;21.27;85.64;101178.31;7282306;19;152690;-52
2021/09/15 08:00:01;;;;;;;;;;;;;;;21.28;85.40;101186.47;7280039;19;152797;-52
2021/09/15 08:02:28;;;;;;;;;;;;;;;21.29;85.58;101185.34;7283209;19;151536;-52
2021/09/15 08:04:55;;;;;;;;;;;;;;;21.29;85.24;101188.13;7283212;19;152946;-51
2021/09/15 08:07:23;;;;;;;;;;;;;;;21.32;85.36;101183.03;7281830;19;154259;-52
2021/09/15 08:09:50;;;;;;;;;;;;;;;21.32;85.41;101192.28;7281060;19;151663;-51
2021/09/15 08:12:17;;;;;;;;;;;;;;;21.32;85.08;101189.50;7288693;19;152734;-52
2021/09/15 08:14:44;;;;;;;;;;;;;;;21.32;85.53;101195.09;7281494;19;152159;-52
2021/09/15 08:17:12;;;;;;;;;;;;;;;21.35;85.28;101202.09;7283983;19;152696;-51
2021/09/15 08:19:40;;;;;;;;;;;;;;;21.34;85.50;101200.44;7282127;19;153431;-52
2021/09/15 08:22:06;;;;;;;;;;;;;;;21.33;85.58;101216.47;7282378;19;152492;-52
2021/09/15 08:24:33;;;;;;;;;;;;;;;21.34;84.99;101212.50;7284432;19;152345;-52
2021/09/15 08:27:00;;;;;;;;;;;;;;;21.35;85.02;101221.78;7278703;19;152776;-52
2021/09/15 08:29:27;;;;;;;;;;;;;;;21.34;85.27;101209.69;7283397;19;151808;-52
2021/09/15 08:31:54;;;;;;;;;;;;;;;21.36;85.27;101217.81;7283048;19;153217;-51
2021/09/15 08:34:21;;;;;;;;;;;;;;;21.36;85.18;101210.22;7285635;19;152184;-52
2021/09/15 08:36:52;;;;;;;;;;;;;;;21.36;85.14;101213.03;7275998;19;153489;-52
2021/09/15 08:39:21;;;;;;;;;;;;;;;21.37;85.44;101213.84;7277431;19;154015;-52
2021/09/15 08:41:50;;;;;;;;;;;;;;;21.37;84.82;101220.31;7283085;19;152026;-52
2021/09/15 08:44:17;;;;;;;;;;;;;;;21.39;84.83;101225.66;7279927;19;153404;-52
2021/09/15 08:46:45;;;;;;;;;;;;;;;21.38;85.04;101227.63;7283009;19;153938;-52
2021/09/15 08:49:13;;;;;;;;;;;;;;;21.37;84.91;101220.31;7281247;19;152211;-52
2021/09/15 08:51:40;;;;;;;;;;;;;;;21.37;84.93;101223.13;7280693;19;152741;-52
2021/09/15 08:54:10;;;;;;;;;;;;;;;21.37;85.11;101231.56;7289229;19;152568;-52
2021/09/15 08:56:38;;;;;;;;;;;;;;;21.39;85.08;101220.84;7281473;19;152984;-51
2021/09/15 08:59:10;;;;;;;;;;;;;;;21.39;85.04;101223.66;7280420;19;152848;-52
2021/09/15 09:01:39;;;;;;;;;;;;;;;21.40;85.08;101230.09;7280395;19;152116;-52
2021/09/15 09:04:11;;;;;;;;;;;;;;;21.39;85.06;101225.66;7280061;19;152774;-51
2021/09/15 09:06:39;;;;;;;;;;;;;;;21.39;84.82;101234.91;7279797;19;153121;-52
2021/09/15 09:09:08;;;;;;;;;;;;;;;21.40;84.94;101233.75;7282260;19;151958;-52
2021/09/15 09:11:36;;;;;;;;;;;;;;;21.41;84.82;101227.00;7279237;19;153459;-52
2021/09/15 09:14:08;;;;;;;;;;;;;;;21.42;84.80;101233.44;7280645;19;153227;-52
2021/09/15 09:16:49;;;;;;;;;;;;;;;21.43;85.09;101229.50;7286039;19;153096;-52
2021/09/15 09:19:18;;;;;;;;;;;;;;;21.42;85.02;101223.03;7277088;19;154149;-52
2021/09/15 09:21:47;;;;;;;;;;;;;;;21.42;85.00;101234.28;7285994;19;152271;-51
2021/09/15 09:24:21;;;;;;;;;;;;;;;21.45;84.81;101232.81;7287902;19;151694;-52
2021/09/15 09:26:52;;;;;;;;;;;;;;;21.43;84.94;101233.16;7284755;19;152960;-51
2021/09/15 09:29:21;;;;;;;;;;;;;;;21.44;84.58;101232.00;7287258;19;151802;-51
2021/09/15 09:31:51;;;;;;;;;;;;;;;21.45;84.54;101233.66;7287623;19;152519;-52
2021/09/15 09:34:20;;;;;;;;;;;;;;;21.43;84.86;101235.97;7284247;19;154046;-51
2021/09/15 09:36:54;;;;;;;;;;;;;;;21.45;84.57;101239.28;7287432;19;152177;-52
2021/09/15 09:39:28;;;;;;;;;;;;;;;21.45;84.61;101236.47;7288848;19;152398;-51
2021/09/15 09:41:55;;;;;;;;;;;;;;;21.47;84.83;101239.81;7288034;19;152027;-51
2021/09/15 09:44:26;;;;;;;;;;;;;;;21.47;84.53;101239.81;7287828;19;153137;-52
2021/09/15 09:46:55;;;;;;;;;;;;;;;21.46;84.80;101242.94;7284480;19;152694;-51
2021/09/15 09:49:24;;;;;;;;;;;;;;;21.48;84.32;101246.28;7283655;19;151923;-52
2021/09/15 09:51:54;;;;;;;;;;;;;;;21.46;84.60;101246.59;7285518;19;153669;-52
2021/09/15 09:54:27;;;;;;;;;;;;;;;21.49;84.84;101250.75;7285279;19;153970;-51
2021/09/15 09:57:00;;;;;;;;;;;;;;;21.49;84.64;101253.56;7285098;19;152376;-52
2021/09/15 09:59:28;;;;;;;;;;;;;;;21.50;84.67;101253.25;7284575;19;151968;-51
2021/09/15 10:01:58;;;;;;;;;;;;;;;21.49;84.72;101259.19;7290622;19;154169;-52
2021/09/15 10:04:28;;;;;;;;;;;;;;;21.48;84.28;101255.56;7285942;19;153105;-52
2021/09/15 10:06:59;;;;;;;;;;;;;;;21.48;84.37;101246.28;7283639;19;154069;-52
2021/09/15 10:09:26;;;;;;;;;;;;;;;21.48;nan;101255.56;7286482;19;152420;-52
2021/09/15 10:11:55;;;;;;;;;;;;;;;21.49;84.55;101253.56;7284803;19;181363;-52
2021/09/15 10:14:25;;;;;;;;;;;;;;;21.47;84.39;101256.69;7286284;19;153442;-52
2021/09/15 10:16:57;;;;;;;;;;;;;;;21.48;84.72;101252.75;7284965;19;151823;-52
2021/09/15 10:19:27;;;;;;;;;;;;;;;21.50;84.37;101256.06;7287523;19;152207;-51
2021/09/15 10:21:57;;;;;;;;;;;;;;;21.49;84.03;101245.13;7285907;19;153645;-52
2021/09/15 10:24:28;;;;;;;;;;;;;;;21.49;84.71;101245.97;7292906;19;152184;-52
2021/09/15 10:26:57;;;;;;;;;;;;;;;21.50;84.42;101239.19;7284935;19;154196;-52
2021/09/15 10:29:27;;;;;;;;;;;;;;;21.51;84.15;101238.06;7284786;19;151819;-51
2021/09/15 10:31:59;;;;;;;;;;;;;;;21.53;84.29;101243.41;7281074;19;153557;-51
2021/09/15 10:34:29;;;;;;;;;;;;;;;21.51;84.20;101240.88;7283899;19;153300;-52
2021/09/15 10:36:56;;;;;;;;;;;;;;;21.52;84.27;101228.50;7284557;19;151954;-52
2021/09/15 10:39:24;;;;;;;;;;;;;;;21.53;84.29;101232.16;7282002;19;152735;-51
2021/09/15 10:41:51;;;;;;;;;;;;;;;21.55;84.20;101222.25;7282130;19;154078;-51
2021/09/15 10:44:18;;;;;;;;;;;;;;;21.55;84.03;101233.50;7291013;19;152078;-52
2021/09/15 10:46:45;;;;;;;;;;;;;;;21.57;84.36;101222.78;7283477;19;153284;-51
2021/09/15 10:49:15;;;;;;;;;;;;;;;21.55;84.22;101219.44;7285743;19;151704;-51
2021/09/15 10:51:43;;;;;;;;;;;;;;;21.55;84.11;101216.63;7283894;19;152770;-51
2021/09/15 10:54:13;;;;;;;;;;;;;;;21.56;83.95;101212.66;7283351;19;152665;-52
2021/09/15 10:56:40;;;;;;;;;;;;;;;21.56;84.15;101212.66;7283844;19;151796;-52
2021/09/15 10:59:07;;;;;;;;;;;;;;;21.56;84.38;101215.50;7285604;19;152026;-52
2021/09/15 11:01:38;;;;;;;;;;;;;;;21.56;84.19;101203.41;7283831;19;153684;-51
2021/09/15 11:04:05;;;;;;;;;;;;;;;21.58;84.09;101206.72;7284625;19;152256;-51
2021/09/15 11:06:34;;;;;;;;;;;;;;;21.60;83.71;101208.09;7291454;19;153753;-51
2021/09/15 11:09:01;;;;;;;;;;;;;;;21.63;83.85;101201.84;7285163;19;151799;-51
2021/09/15 11:11:52;;;;;;;;;;;;;;;21.65;84.09;101202.38;7284940;19;153370;-51
2021/09/15 11:14:19;;;;;;;;;;;;;;;21.71;83.97;101203.13;7283361;19;153314;-52
2021/09/15 11:16:46;;;;;;;;;;;;;;;21.73;83.73;101198.00;7282618;19;151779;-52
2021/09/15 11:19:15;;;;;;;;;;;;;;;21.75;83.65;101187.28;7285049;19;153619;-52
2021/09/15 11:21:46;;;;;;;;;;;;;;;21.77;83.86;101176.56;7281783;19;153799;-50
2021/09/15 11:24:16;;;;;;;;;;;;;;;21.81;83.58;101182.38;7283818;19;151835;-52
2021/09/15 11:26:45;;;;;;;;;;;;;;;21.84;83.22;101178.97;7285534;19;153316;-51
2021/09/15 11:29:13;;;;;;;;;;;;;;;21.89;83.22;101190.13;7289625;19;152659;-52
2021/09/15 11:31:41;;;;;;;;;;;;;;;21.92;83.08;101183.84;7282337;19;152927;-51
2021/09/15 11:34:11;;;;;;;;;;;;;;;21.95;83.28;101186.06;7279934;19;154092;-51
2021/09/15 11:36:38;;;;;;;;;;;;;;;21.94;83.03;101190.84;7280599;19;152247;-51
2021/09/15 11:39:06;;;;;;;;;;;;;;;21.95;83.04;101184.09;7283692;19;153511;-52
2021/09/15 11:41:33;;;;;;;;;;;;;;;21.94;83.20;101179.59;7273913;19;152873;-51
2021/09/15 11:44:00;;;;;;;;;;;;;;;21.91;83.50;101185.00;7280657;19;152097;-52
2021/09/15 11:46:30;;;;;;;;;;;;;;;21.88;83.05;101183.66;7282137;19;153497;-51
2021/09/15 11:48:59;;;;;;;;;;;;;;;21.87;83.06;101181.97;7280099;19;153252;-51
2021/09/15 11:51:30;;;;;;;;;;;;;;;21.89;82.91;101182.50;7288623;19;151691;-52
2021/09/15 11:56:31;;;;;;;;;;;;;;;21.91;83.26;101183.03;7278667;19;152216;-52
2021/09/15 11:58:58;;;;;;;;;;;;;;;21.91;83.32;101183.03;7280993;19;153549;-52
2021/09/15 12:01:28;;;;;;;;;;;;;;;21.94;82.98;101184.44;7282044;19;152609;-51
2021/09/15 12:03:56;;;;;;;;;;;;;;;21.99;82.66;101185.13;7283459;19;151465;-49
2021/09/15 12:06:23;;;;;;;;;;;;;;;22.02;82.51;101178.91;7282968;19;152427;-51
2021/09/15 12:08:51;;;;;;;;;;;;;;;22.00;82.65;101183.16;7281328;19;152621;-51
2021/09/15 12:11:18;;;;;;;;;;;;;;;21.97;83.01;101184.63;7285477;19;152311;-56
2021/09/15 12:13:45;;;;;;;;;;;;;;;21.94;83.28;101179.59;7286151;19;152183;-50
2021/09/15 12:16:24;;;;;;;;;;;;;;;21.94;83.23;101185.22;7282509;19;151811;-50
2021/09/15 12:18:51;;;;;;;;;;;;;;;21.93;82.74;101188.38;7282366;19;153442;-50
2021/09/15 12:21:20;;;;;;;;;;;;;;;21.92;82.99;101193.13;7280955;19;152930;-51
2021/09/15 12:23:47;;;;;;;;;;;;;;;21.92;82.90;101189.47;7279441;19;152022;-50
2021/09/15 12:26:22;;;;;;;;;;;;;;;21.91;83.16;101187.81;7280736;19;154182;-50
2021/09/15 12:28:58;;;;;;;;;;;;;;;21.91;82.92;101177.41;7277786;19;152248;-50
2021/09/15 12:31:25;;;;;;;;;;;;;;;21.91;83.10;101179.38;7280129;19;152094;-50
2021/09/15 12:34:01;;;;;;;;;;;;;;;21.90;82.94;101180.50;7281110;19;153410;-50
2021/09/15 12:36:28;;;;;;;;;;;;;;;21.92;82.86;101181.03;7289404;19;152787;-49
2021/09/15 12:38:59;;;;;;;;;;;;;;;21.91;82.76;101185.84;7279732;19;152685;-50
2021/09/15 12:41:27;;;;;;;;;;;;;;;21.89;83.34;101190.94;7278090;19;154050;-50